sensor_id;sensor_type;location;lat;lon;timestamp;pressure;altitude;pressure_sealevel;temperature;humidity
70559;BME280;58108;48.094;11.838;2023-12-04T00:00:33;95540.28;;;-7.73;100.00
70559;BME280;58108;48.094;11.838;2023-12-04T00:02:59;95526.72;;;-7.72;100.00
70559;BME280;58108;48.094;11.838;2023-12-04T00:05:24;95528.34;;;-7.61;100.00
70559;BME280;58108;48.094;11.838;2023-12-04T00:07:50;95534.38;;;-7.76;100.00
70559;BME280;58108;48.094;11.838;2023-12-04T00:10:15;95521.69;;;-7.84;100.00
70559;BME280;58108;48.094;11.838;2023-12-04T00:12:41;95530.94;;;-7.69;100.00
70559;BME280;58108;48.094;11.838;2023-12-04T00:15:07;95525.13;;;-7.88;100.00
70559;BME280;58108;48.094;11.838;2023-12-04T00:17:33;95531.09;;;-7.99;100.00
70559;BME280;58108;48.094;11.838;2023-12-04T00:19:58;95527.72;;;-8.01;100.00
70559;BME280;58108;48.094;11.838;2023-12-04T00:22:24;95525.97;;;-7.94;100.00
70559;BME280;58108;48.094;11.838;2023-12-04T00:24:49;95514.19;;;-8.03;100.00
70559;BME280;58108;48.094;11.838;2023-12-04T00:27:15;95524.31;;;-8.00;100.00
70559;BME280;58108;48.094;11.838;2023-12-04T00:29:41;95514.22;;;-8.07;100.00
70559;BME280;58108;48.094;11.838;2023-12-04T00:32:06;95520.16;;;-8.12;100.00
70559;BME280;58108;48.094;11.838;2023-12-04T00:34:32;95513.50;;;-8.41;100.00
70559;BME280;58108;48.094;11.838;2023-12-04T00:36:58;95511.94;;;-8.73;100.00
70559;BME280;58108;48.094;11.838;2023-12-04T00:39:23;95513.69;;;-9.22;100.00
70559;BME280;58108;48.094;11.838;2023-12-04T00:41:49;95514.56;;;-9.29;100.00
70559;BME280;58108;48.094;11.838;2023-12-04T00:44:14;95519.66;;;-9.41;100.00
70559;BME280;58108;48.094;11.838;2023-12-04T00:46:40;95521.31;;;-9.37;100.00
70559;BME280;58108;48.094;11.838;2023-12-04T00:49:05;95515.41;;;-9.50;100.00
70559;BME280;58108;48.094;11.838;2023-12-04T00:51:38;95513.72;;;-9.53;100.00
70559;BME280;58108;48.094;11.838;2023-12-04T00:54:04;95511.19;;;-9.36;100.00
70559;BME280;58108;48.094;11.838;2023-12-04T00:56:29;95506.94;;;-9.85;100.00
70559;BME280;58108;48.094;11.838;2023-12-04T00:58:55;95498.50;;;-9.82;100.00
70559;BME280;58108;48.094;11.838;2023-12-04T01:01:20;95506.94;;;-9.86;100.00
70559;BME280;58108;48.094;11.838;2023-12-04T01:03:46;95501.84;;;-9.99;100.00
70559;BME280;58108;48.094;11.838;2023-12-04T01:06:22;95504.34;;;-10.11;100.00
70559;BME280;58108;48.094;11.838;2023-12-04T01:08:49;95506.03;;;-10.10;100.00
70559;BME280;58108;48.094;11.838;2023-12-04T01:11:15;95497.63;;;-10.02;99.90
70559;BME280;58108;48.094;11.838;2023-12-04T01:13:41;95495.91;;;-10.07;100.00
70559;BME280;58108;48.094;11.838;2023-12-04T01:16:07;95500.91;;;-10.40;100.00
70559;BME280;58108;48.094;11.838;2023-12-04T01:18:33;95501.59;;;-10.78;100.00
70559;BME280;58108;48.094;11.838;2023-12-04T01:20:59;95504.91;;;-10.90;100.00
70559;BME280;58108;48.094;11.838;2023-12-04T01:23:24;95502.34;;;-11.00;100.00
70559;BME280;58108;48.094;11.838;2023-12-04T01:25:50;95500.59;;;-11.07;100.00
70559;BME280;58108;48.094;11.838;2023-12-04T01:28:16;95495.78;;;-10.60;100.00
70559;BME280;58108;48.094;11.838;2023-12-04T01:30:41;95490.69;;;-10.73;100.00
70559;BME280;58108;48.094;11.838;2023-12-04T01:33:07;95485.69;;;-10.49;100.00
70559;BME280;58108;48.094;11.838;2023-12-04T01:35:33;95481.56;;;-10.07;100.00
70559;BME280;58108;48.094;11.838;2023-12-04T01:37:59;95478.16;;;-10.23;100.00
70559;BME280;58108;48.094;11.838;2023-12-04T01:40:26;95480.53;;;-10.77;100.00
70559;BME280;58108;48.094;11.838;2023-12-04T01:42:52;95478.81;;;-10.86;100.00
70559;BME280;58108;48.094;11.838;2023-12-04T01:45:17;95474.41;;;-11.17;100.00
70559;BME280;58108;48.094;11.838;2023-12-04T01:47:45;95467.69;;;-11.18;100.00
70559;BME280;58108;48.094;11.838;2023-12-04T01:50:12;95464.28;;;-11.23;100.00
70559;BME280;58108;48.094;11.838;2023-12-04T01:52:38;95468.25;;;-11.58;100.00
70559;BME280;58108;48.094;11.838;2023-12-04T01:55:06;95468.22;;;-11.65;100.00
70559;BME280;58108;48.094;11.838;2023-12-04T01:57:33;95470.56;;;-11.87;100.00
70559;BME280;58108;48.094;11.838;2023-12-04T01:59:59;95462.63;;;-12.31;100.00
70559;BME280;58108;48.094;11.838;2023-12-04T02:02:26;95457.00;;;-12.00;100.00
70559;BME280;58108;48.094;11.838;2023-12-04T02:04:54;95453.56;;;-12.10;100.00
70559;BME280;58108;48.094;11.838;2023-12-04T02:07:21;95454.09;;;-12.41;100.00
70559;BME280;58108;48.094;11.838;2023-12-04T02:09:46;95446.00;;;-12.92;100.00
70559;BME280;58108;48.094;11.838;2023-12-04T02:12:12;95441.78;;;-12.11;100.00
70559;BME280;58108;48.094;11.838;2023-12-04T02:14:37;95423.59;;;-11.63;100.00
70559;BME280;58108;48.094;11.838;2023-12-04T02:17:05;95418.03;;;-11.08;100.00
70559;BME280;58108;48.094;11.838;2023-12-04T02:19:32;95405.41;;;-11.06;100.00
70559;BME280;58108;48.094;11.838;2023-12-04T02:21:57;95402.19;;;-10.49;100.00
70559;BME280;58108;48.094;11.838;2023-12-04T02:24:24;95398.00;;;-10.04;100.00
70559;BME280;58108;48.094;11.838;2023-12-04T02:27:14;95403.09;;;-9.99;100.00
70559;BME280;58108;48.094;11.838;2023-12-04T02:29:52;95399.69;;;-9.90;100.00
70559;BME280;58108;48.094;11.838;2023-12-04T02:32:19;95389.56;;;-9.90;100.00
70559;BME280;58108;48.094;11.838;2023-12-04T02:34:47;95390.41;;;-10.22;100.00
70559;BME280;58108;48.094;11.838;2023-12-04T02:37:14;95383.63;;;-10.36;100.00
70559;BME280;58108;48.094;11.838;2023-12-04T02:39:42;95376.00;;;-10.72;100.00
70559;BME280;58108;48.094;11.838;2023-12-04T02:42:08;95370.09;;;-10.71;100.00
70559;BME280;58108;48.094;11.838;2023-12-04T02:44:34;95375.19;;;-10.52;100.00
70559;BME280;58108;48.094;11.838;2023-12-04T02:46:59;95378.56;;;-10.31;100.00
70559;BME280;58108;48.094;11.838;2023-12-04T02:49:25;95377.75;;;-10.08;100.00
70559;BME280;58108;48.094;11.838;2023-12-04T02:51:51;95380.25;;;-9.82;100.00
70559;BME280;58108;48.094;11.838;2023-12-04T02:54:16;95382.78;;;-10.38;100.00
70559;BME280;58108;48.094;11.838;2023-12-04T02:56:42;95377.75;;;-10.22;100.00
70559;BME280;58108;48.094;11.838;2023-12-04T02:59:07;95379.41;;;-10.45;100.00
70559;BME280;58108;48.094;11.838;2023-12-04T03:01:33;95371.78;;;-10.73;100.00
70559;BME280;58108;48.094;11.838;2023-12-04T03:03:59;95377.63;;;-10.89;100.00
70559;BME280;58108;48.094;11.838;2023-12-04T03:06:24;95372.53;;;-11.06;100.00
70559;BME280;58108;48.094;11.838;2023-12-04T03:08:50;95368.31;;;-11.06;100.00
70559;BME280;58108;48.094;11.838;2023-12-04T03:11:15;95357.28;;;-11.28;100.00
70559;BME280;58108;48.094;11.838;2023-12-04T03:13:41;95361.44;;;-11.41;100.00
70559;BME280;58108;48.094;11.838;2023-12-04T03:16:14;95361.44;;;-11.30;100.00
70559;BME280;58108;48.094;11.838;2023-12-04T03:18:40;95362.00;;;-11.87;100.00
70559;BME280;58108;48.094;11.838;2023-12-04T03:21:06;95357.69;;;-11.98;100.00
70559;BME280;58108;48.094;11.838;2023-12-04T03:23:32;95362.50;;;-12.35;100.00
70559;BME280;58108;48.094;11.838;2023-12-04T03:25:57;95355.19;;;-11.98;100.00
70559;BME280;58108;48.094;11.838;2023-12-04T03:28:23;95351.25;;;-11.54;100.00
70559;BME280;58108;48.094;11.838;2023-12-04T03:30:48;95337.59;;;-11.85;98.67
70559;BME280;58108;48.094;11.838;2023-12-04T03:33:14;95340.59;;;-12.42;96.41
70559;BME280;58108;48.094;11.838;2023-12-04T03:35:39;95327.59;;;-12.83;97.11
70559;BME280;58108;48.094;11.838;2023-12-04T03:38:05;95337.16;;;-13.33;98.98
70559;BME280;58108;48.094;11.838;2023-12-04T03:40:31;95325.44;;;-13.29;100.00
70559;BME280;58108;48.094;11.838;2023-12-04T03:42:57;95319.25;;;-12.77;100.00
70559;BME280;58108;48.094;11.838;2023-12-04T03:45:22;95312.13;;;-12.23;100.00
70559;BME280;58108;48.094;11.838;2023-12-04T03:47:48;95315.75;;;-11.80;100.00
70559;BME280;58108;48.094;11.838;2023-12-04T03:50:13;95316.72;;;-11.55;100.00
70559;BME280;58108;48.094;11.838;2023-12-04T03:52:39;95319.28;;;-11.42;100.00
70559;BME280;58108;48.094;11.838;2023-12-04T03:55:05;95317.72;;;-11.14;100.00
70559;BME280;58108;48.094;11.838;2023-12-04T03:57:30;95306.75;;;-11.14;100.00
70559;BME280;58108;48.094;11.838;2023-12-04T03:59:56;95310.19;;;-10.98;100.00
70559;BME280;58108;48.094;11.838;2023-12-04T04:02:22;95303.38;;;-11.13;100.00
70559;BME280;58108;48.094;11.838;2023-12-04T04:04:47;95303.34;;;-11.29;100.00
70559;BME280;58108;48.094;11.838;2023-12-04T04:07:15;95303.38;;;-11.26;100.00
70559;BME280;58108;48.094;11.838;2023-12-04T04:09:41;95304.19;;;-11.25;100.00
70559;BME280;58108;48.094;11.838;2023-12-04T04:12:07;95301.66;;;-11.27;100.00
70559;BME280;58108;48.094;11.838;2023-12-04T04:14:32;95310.06;;;-11.32;100.00
70559;BME280;58108;48.094;11.838;2023-12-04T04:16:58;95304.81;;;-11.79;99.15
70559;BME280;58108;48.094;11.838;2023-12-04T04:19:23;95306.28;;;-12.17;100.00
70559;BME280;58108;48.094;11.838;2023-12-04T04:21:49;95302.56;;;-12.63;100.00
70559;BME280;58108;48.094;11.838;2023-12-04T04:24:15;95295.31;;;-13.18;100.00
70559;BME280;58108;48.094;11.838;2023-12-04T04:26:40;95299.22;;;-13.50;100.00
70559;BME280;58108;48.094;11.838;2023-12-04T04:29:06;95291.22;;;-13.08;100.00
70559;BME280;58108;48.094;11.838;2023-12-04T04:31:31;95290.66;;;-12.82;100.00
70559;BME280;58108;48.094;11.838;2023-12-04T04:33:57;95287.66;;;-12.34;100.00
70559;BME280;58108;48.094;11.838;2023-12-04T04:36:22;95285.91;;;-12.45;100.00
70559;BME280;58108;48.094;11.838;2023-12-04T04:38:48;95281.22;;;-13.02;100.00
70559;BME280;58108;48.094;11.838;2023-12-04T04:41:15;95277.63;;;-13.26;100.00
70559;BME280;58108;48.094;11.838;2023-12-04T04:43:41;95268.69;;;-12.96;100.00
70559;BME280;58108;48.094;11.838;2023-12-04T04:46:07;95268.63;;;-12.99;100.00
70559;BME280;58108;48.094;11.838;2023-12-04T04:48:33;95268.41;;;-13.24;100.00
70559;BME280;58108;48.094;11.838;2023-12-04T04:50:58;95260.78;;;-13.30;100.00
70559;BME280;58108;48.094;11.838;2023-12-04T04:53:24;95263.34;;;-13.25;100.00
70559;BME280;58108;48.094;11.838;2023-12-04T04:55:49;95257.31;;;-13.46;100.00
70559;BME280;58108;48.094;11.838;2023-12-04T04:58:16;95262.25;;;-12.58;100.00
70559;BME280;58108;48.094;11.838;2023-12-04T05:00:42;95259.94;;;-12.31;100.00
70559;BME280;58108;48.094;11.838;2023-12-04T05:03:08;95267.31;;;-12.56;100.00
70559;BME280;58108;48.094;11.838;2023-12-04T05:05:33;95262.91;;;-12.84;100.00
70559;BME280;58108;48.094;11.838;2023-12-04T05:07:59;95262.25;;;-12.64;100.00
70559;BME280;58108;48.094;11.838;2023-12-04T05:10:24;95261.47;;;-12.52;100.00
70559;BME280;58108;48.094;11.838;2023-12-04T05:12:50;95266.56;;;-12.44;100.00
70559;BME280;58108;48.094;11.838;2023-12-04T05:15:15;95260.66;;;-12.51;100.00
70559;BME280;58108;48.094;11.838;2023-12-04T05:17:41;95265.78;;;-12.37;100.00
70559;BME280;58108;48.094;11.838;2023-12-04T05:20:07;95259.22;;;-12.10;100.00
70559;BME280;58108;48.094;11.838;2023-12-04T05:22:34;95254.91;;;-12.33;100.00
70559;BME280;58108;48.094;11.838;2023-12-04T05:25:00;95252.22;;;-12.55;100.00
70559;BME280;58108;48.094;11.838;2023-12-04T05:27:25;95236.88;;;-12.83;100.00
70559;BME280;58108;48.094;11.838;2023-12-04T05:29:51;95237.19;;;-12.39;100.00
70559;BME280;58108;48.094;11.838;2023-12-04T05:32:17;95237.41;;;-11.96;100.00
70559;BME280;58108;48.094;11.838;2023-12-04T05:34:42;95237.88;;;-12.62;100.00
70559;BME280;58108;48.094;11.838;2023-12-04T05:37:08;95238.00;;;-12.43;100.00
70559;BME280;58108;48.094;11.838;2023-12-04T05:39:33;95226.19;;;-12.52;100.00
70559;BME280;58108;48.094;11.838;2023-12-04T05:41:59;95227.91;;;-12.42;100.00
70559;BME280;58108;48.094;11.838;2023-12-04T05:44:25;95229.72;;;-12.27;100.00
70559;BME280;58108;48.094;11.838;2023-12-04T05:46:50;95231.38;;;-12.26;100.00
70559;BME280;58108;48.094;11.838;2023-12-04T05:49:16;95240.47;;;-12.48;100.00
70559;BME280;58108;48.094;11.838;2023-12-04T05:51:41;95226.06;;;-12.68;100.00
70559;BME280;58108;48.094;11.838;2023-12-04T05:54:07;95226.94;;;-12.64;100.00
70559;BME280;58108;48.094;11.838;2023-12-04T05:56:34;95226.34;;;-12.23;100.00
70559;BME280;58108;48.094;11.838;2023-12-04T05:58:59;95211.97;;;-12.38;100.00
70559;BME280;58108;48.094;11.838;2023-12-04T06:01:25;95210.38;;;-12.23;100.00
70559;BME280;58108;48.094;11.838;2023-12-04T06:03:51;95215.59;;;-11.78;100.00
70559;BME280;58108;48.094;11.838;2023-12-04T06:06:16;95218.19;;;-11.62;99.60
70559;BME280;58108;48.094;11.838;2023-12-04T06:08:42;95213.94;;;-11.70;98.13
70559;BME280;58108;48.094;11.838;2023-12-04T06:11:08;95223.81;;;-12.23;97.20
70559;BME280;58108;48.094;11.838;2023-12-04T06:13:33;95221.09;;;-12.55;98.50
70559;BME280;58108;48.094;11.838;2023-12-04T06:15:59;95215.19;;;-12.59;100.00
70559;BME280;58108;48.094;11.838;2023-12-04T06:18:24;95209.22;;;-12.75;100.00
70559;BME280;58108;48.094;11.838;2023-12-04T06:20:50;95209.28;;;-12.64;100.00
70559;BME280;58108;48.094;11.838;2023-12-04T06:23:16;95207.56;;;-12.71;100.00
70559;BME280;58108;48.094;11.838;2023-12-04T06:25:43;95203.44;;;-12.58;100.00
70559;BME280;58108;48.094;11.838;2023-12-04T06:28:09;95197.22;;;-13.02;100.00
70559;BME280;58108;48.094;11.838;2023-12-04T06:30:35;95193.28;;;-12.68;100.00
70559;BME280;58108;48.094;11.838;2023-12-04T06:33:01;95186.06;;;-12.07;100.00
70559;BME280;58108;48.094;11.838;2023-12-04T06:35:27;95182.47;;;-12.50;99.78
70559;BME280;58108;48.094;11.838;2023-12-04T06:37:53;95182.47;;;-12.51;100.00
70559;BME280;58108;48.094;11.838;2023-12-04T06:40:20;95180.78;;;-12.51;100.00
70559;BME280;58108;48.094;11.838;2023-12-04T06:42:46;95178.28;;;-12.47;100.00
70559;BME280;58108;48.094;11.838;2023-12-04T06:45:12;95191.75;;;-12.41;100.00
70559;BME280;58108;48.094;11.838;2023-12-04T06:47:40;95184.25;;;-12.33;100.00
70559;BME280;58108;48.094;11.838;2023-12-04T06:50:06;95172.59;;;-12.09;100.00
70559;BME280;58108;48.094;11.838;2023-12-04T06:52:31;95168.53;;;-11.62;100.00
70559;BME280;58108;48.094;11.838;2023-12-04T06:54:57;95174.41;;;-11.61;100.00
70559;BME280;58108;48.094;11.838;2023-12-04T06:57:22;95168.38;;;-12.15;99.74
70559;BME280;58108;48.094;11.838;2023-12-04T06:59:48;95160.81;;;-12.05;99.43
70559;BME280;58108;48.094;11.838;2023-12-04T07:02:14;95162.38;;;-12.36;99.76
70559;BME280;58108;48.094;11.838;2023-12-04T07:04:40;95155.63;;;-12.38;100.00
70559;BME280;58108;48.094;11.838;2023-12-04T07:07:05;95159.06;;;-12.24;100.00
70559;BME280;58108;48.094;11.838;2023-12-04T07:09:32;95158.13;;;-12.44;100.00
70559;BME280;58108;48.094;11.838;2023-12-04T07:11:58;95153.97;;;-12.34;100.00
70559;BME280;58108;48.094;11.838;2023-12-04T07:14:23;95151.47;;;-12.30;100.00
70559;BME280;58108;48.094;11.838;2023-12-04T07:16:49;95144.00;;;-12.11;100.00
70559;BME280;58108;48.094;11.838;2023-12-04T07:19:15;95146.50;;;-12.16;99.36
70559;BME280;58108;48.094;11.838;2023-12-04T07:21:42;95146.34;;;-12.45;98.30
70559;BME280;58108;48.094;11.838;2023-12-04T07:24:08;95144.63;;;-12.53;99.60
70559;BME280;58108;48.094;11.838;2023-12-04T07:26:34;95142.13;;;-12.48;100.00
70559;BME280;58108;48.094;11.838;2023-12-04T07:29:01;95134.75;;;-12.07;100.00
70559;BME280;58108;48.094;11.838;2023-12-04T07:31:26;95128.97;;;-11.54;100.00
70559;BME280;58108;48.094;11.838;2023-12-04T07:33:55;95124.78;;;-11.30;100.00
70559;BME280;58108;48.094;11.838;2023-12-04T07:36:21;95119.72;;;-11.28;100.00
70559;BME280;58108;48.094;11.838;2023-12-04T07:38:47;95115.50;;;-11.14;100.00
70559;BME280;58108;48.094;11.838;2023-12-04T07:41:14;95105.38;;;-10.89;100.00
70559;BME280;58108;48.094;11.838;2023-12-04T07:43:40;95093.56;;;-10.66;98.81
70559;BME280;58108;48.094;11.838;2023-12-04T07:46:06;95094.44;;;-11.00;97.20
70559;BME280;58108;48.094;11.838;2023-12-04T07:48:31;95089.34;;;-10.83;98.80
70559;BME280;58108;48.094;11.838;2023-12-04T07:50:57;95088.53;;;-11.13;98.74
70559;BME280;58108;48.094;11.838;2023-12-04T07:53:22;95092.75;;;-11.06;99.97
70559;BME280;58108;48.094;11.838;2023-12-04T07:55:51;95091.91;;;-11.00;100.00
70559;BME280;58108;48.094;11.838;2023-12-04T07:58:17;95094.41;;;-10.74;100.00
70559;BME280;58108;48.094;11.838;2023-12-04T08:00:43;95096.88;;;-10.55;100.00
70559;BME280;58108;48.094;11.838;2023-12-04T08:03:09;95100.94;;;-10.15;100.00
70559;BME280;58108;48.094;11.838;2023-12-04T08:05:35;95096.72;;;-10.13;100.00
70559;BME280;58108;48.094;11.838;2023-12-04T08:08:00;95094.09;;;-9.94;100.00
70559;BME280;58108;48.094;11.838;2023-12-04T08:10:26;95093.28;;;-10.01;99.94
70559;BME280;58108;48.094;11.838;2023-12-04T08:12:52;95089.88;;;-9.94;97.87
70559;BME280;58108;48.094;11.838;2023-12-04T08:15:17;95092.63;;;-10.42;96.55
70559;BME280;58108;48.094;11.838;2023-12-04T08:17:43;95091.63;;;-10.08;98.45
70559;BME280;58108;48.094;11.838;2023-12-04T08:20:09;95089.03;;;-9.96;98.89
70559;BME280;58108;48.094;11.838;2023-12-04T08:22:40;95099.03;;;-9.69;98.78
70559;BME280;58108;48.094;11.838;2023-12-04T08:25:07;95092.00;;;-9.28;99.59
70559;BME280;58108;48.094;11.838;2023-12-04T08:27:33;95094.25;;;-8.93;99.79
70559;BME280;58108;48.094;11.838;2023-12-04T08:29:59;95088.72;;;-8.51;98.89
70559;BME280;58108;48.094;11.838;2023-12-04T08:32:24;95087.13;;;-8.55;97.36
70559;BME280;58108;48.094;11.838;2023-12-04T08:34:51;95093.16;;;-8.67;97.01
70559;BME280;58108;48.094;11.838;2023-12-04T08:37:18;95085.31;;;-8.45;97.36
70559;BME280;58108;48.094;11.838;2023-12-04T08:39:44;95100.19;;;-8.15;97.05
70559;BME280;58108;48.094;11.838;2023-12-04T08:42:11;95086.25;;;-7.82;95.14
70559;BME280;58108;48.094;11.838;2023-12-04T08:44:36;95083.31;;;-7.53;93.78
70559;BME280;58108;48.094;11.838;2023-12-04T08:47:02;95083.09;;;-8.01;91.14
70559;BME280;58108;48.094;11.838;2023-12-04T08:49:28;95091.53;;;-8.74;89.37
70559;BME280;58108;48.094;11.838;2023-12-04T08:51:54;95089.06;;;-8.82;91.22
70559;BME280;58108;48.094;11.838;2023-12-04T08:54:20;95083.59;;;-8.46;93.21
70559;BME280;58108;48.094;11.838;2023-12-04T08:56:45;95084.41;;;-8.42;93.41
70559;BME280;58108;48.094;11.838;2023-12-04T08:59:11;95083.34;;;-8.19;94.34
70559;BME280;58108;48.094;11.838;2023-12-04T09:01:38;95084.34;;;-7.65;94.10
70559;BME280;58108;48.094;11.838;2023-12-04T09:04:04;95074.09;;;-7.04;90.64
70559;BME280;58108;48.094;11.838;2023-12-04T09:06:30;95078.56;;;-7.19;88.50
70559;BME280;58108;48.094;11.838;2023-12-04T09:08:56;95084.38;;;-7.69;88.03
70559;BME280;58108;48.094;11.838;2023-12-04T09:11:21;95083.84;;;-7.94;90.26
70559;BME280;58108;48.094;11.838;2023-12-04T09:13:47;95076.81;;;-7.15;92.55
70559;BME280;58108;48.094;11.838;2023-12-04T09:16:13;95084.72;;;-6.80;90.02
70559;BME280;58108;48.094;11.838;2023-12-04T09:18:39;95084.22;;;-7.01;88.08
70559;BME280;58108;48.094;11.838;2023-12-04T09:21:05;95089.09;;;-6.87;88.50
70559;BME280;58108;48.094;11.838;2023-12-04T09:23:31;95086.22;;;-7.20;88.05
70559;BME280;58108;48.094;11.838;2023-12-04T09:25:56;95080.13;;;-7.10;90.72
70559;BME280;58108;48.094;11.838;2023-12-04T09:28:22;95081.13;;;-6.67;89.82
70559;BME280;58108;48.094;11.838;2023-12-04T09:30:48;95075.22;;;-7.21;88.73
70559;BME280;58108;48.094;11.838;2023-12-04T09:33:13;95071.84;;;-6.25;89.52
70559;BME280;58108;48.094;11.838;2023-12-04T09:35:39;95074.78;;;-5.60;87.72
70559;BME280;58108;48.094;11.838;2023-12-04T09:38:04;95071.22;;;-6.37;85.64
70559;BME280;58108;48.094;11.838;2023-12-04T09:40:30;95067.03;;;-6.39;85.79
70559;BME280;58108;48.094;11.838;2023-12-04T09:42:56;95066.13;;;-6.84;87.61
70559;BME280;58108;48.094;11.838;2023-12-04T09:45:23;95060.28;;;-5.99;89.36
70559;BME280;58108;48.094;11.838;2023-12-04T09:47:49;95055.56;;;-6.18;89.33
70559;BME280;58108;48.094;11.838;2023-12-04T09:50:16;95061.75;;;-6.30;89.02
70559;BME280;58108;48.094;11.838;2023-12-04T09:52:49;95064.56;;;-5.23;87.43
70559;BME280;58108;48.094;11.838;2023-12-04T09:55:18;95060.63;;;-5.36;85.90
70559;BME280;58108;48.094;11.838;2023-12-04T09:57:46;95048.19;;;-5.90;88.08
70559;BME280;58108;48.094;11.838;2023-12-04T10:00:13;95041.03;;;-5.73;88.97
70559;BME280;58108;48.094;11.838;2023-12-04T10:02:40;95048.13;;;-5.88;89.59
70559;BME280;58108;48.094;11.838;2023-12-04T10:05:07;95047.34;;;-5.14;88.30
70559;BME280;58108;48.094;11.838;2023-12-04T10:07:33;95036.34;;;-5.16;85.93
70559;BME280;58108;48.094;11.838;2023-12-04T10:09:58;95033.56;;;-5.43;87.72
70559;BME280;58108;48.094;11.838;2023-12-04T10:12:25;95021.81;;;-4.80;86.30
70559;BME280;58108;48.094;11.838;2023-12-04T10:15:05;95024.72;;;-4.60;84.27
70559;BME280;58108;48.094;11.838;2023-12-04T10:17:35;95026.47;;;-4.61;83.31
70559;BME280;58108;48.094;11.838;2023-12-04T10:20:10;95025.19;;;-4.46;83.36
70559;BME280;58108;48.094;11.838;2023-12-04T10:22:55;95015.09;;;-4.82;85.46
70559;BME280;58108;48.094;11.838;2023-12-04T10:25:22;95024.13;;;-5.03;86.45
70559;BME280;58108;48.094;11.838;2023-12-04T10:27:49;95005.34;;;-5.01;87.49
70559;BME280;58108;48.094;11.838;2023-12-04T10:30:29;94999.31;;;-4.03;85.70
70559;BME280;58108;48.094;11.838;2023-12-04T10:32:57;94993.56;;;-3.81;85.00
70559;BME280;58108;48.094;11.838;2023-12-04T10:35:29;94979.28;;;-3.60;83.52
70559;BME280;58108;48.094;11.838;2023-12-04T10:37:59;94972.13;;;-3.49;82.14
70559;BME280;58108;48.094;11.838;2023-12-04T10:40:35;94965.91;;;-2.89;80.73
70559;BME280;58108;48.094;11.838;2023-12-04T10:43:20;94962.97;;;-3.56;78.88
70559;BME280;58108;48.094;11.838;2023-12-04T10:45:48;94954.16;;;-2.95;81.25
70559;BME280;58108;48.094;11.838;2023-12-04T10:48:16;94962.28;;;-1.42;78.38
70559;BME280;58108;48.094;11.838;2023-12-04T10:50:44;94968.97;;;-0.94;72.61
70559;BME280;58108;48.094;11.838;2023-12-04T10:53:11;94967.19;;;-1.35;73.16
70559;BME280;58108;48.094;11.838;2023-12-04T10:55:38;94969.44;;;-1.50;74.20
70559;BME280;58108;48.094;11.838;2023-12-04T10:58:06;94981.28;;;-2.64;77.56
70559;BME280;58108;48.094;11.838;2023-12-04T11:00:46;94970.66;;;-2.53;78.81
70559;BME280;58108;48.094;11.838;2023-12-04T11:03:21;94972.97;;;-2.96;78.53
70559;BME280;58108;48.094;11.838;2023-12-04T11:05:57;94973.34;;;-3.61;81.16
70559;BME280;58108;48.094;11.838;2023-12-04T11:08:25;94969.34;;;-3.69;82.95
70559;BME280;58108;48.094;11.838;2023-12-04T11:10:58;94965.50;;;-2.77;79.69
70559;BME280;58108;48.094;11.838;2023-12-04T11:13:29;94965.66;;;-2.56;77.91
70559;BME280;58108;48.094;11.838;2023-12-04T11:16:00;94956.69;;;-2.44;76.01
70559;BME280;58108;48.094;11.838;2023-12-04T11:18:27;94949.34;;;-2.79;77.34
70559;BME280;58108;48.094;11.838;2023-12-04T11:21:04;94937.31;;;-2.77;76.97
70559;BME280;58108;48.094;11.838;2023-12-04T11:23:32;94939.00;;;-3.53;79.60
70559;BME280;58108;48.094;11.838;2023-12-04T11:25:58;94934.84;;;-3.31;81.55
70559;BME280;58108;48.094;11.838;2023-12-04T11:28:26;94933.53;;;-3.42;80.96
70559;BME280;58108;48.094;11.838;2023-12-04T11:30:53;94932.09;;;-3.51;81.26
70559;BME280;58108;48.094;11.838;2023-12-04T11:33:19;94925.94;;;-3.46;82.11
70559;BME280;58108;48.094;11.838;2023-12-04T11:36:09;94919.41;;;-3.81;83.48
70559;BME280;58108;48.094;11.838;2023-12-04T11:38:36;94928.81;;;-4.41;85.11
70559;BME280;58108;48.094;11.838;2023-12-04T11:41:22;94908.13;;;-4.03;85.46
70559;BME280;58108;48.094;11.838;2023-12-04T11:43:48;94905.59;;;-4.33;85.97
70559;BME280;58108;48.094;11.838;2023-12-04T11:46:19;94902.03;;;-4.89;88.34
70559;BME280;58108;48.094;11.838;2023-12-04T11:51:49;94898.25;;;-5.05;91.20
70559;BME280;58108;48.094;11.838;2023-12-04T11:54:19;94899.03;;;-5.03;91.99
70559;BME280;58108;48.094;11.838;2023-12-04T11:57:20;94898.94;;;-4.69;91.50
70559;BME280;58108;48.094;11.838;2023-12-04T11:59:49;94886.78;;;-4.30;90.02
70559;BME280;58108;48.094;11.838;2023-12-04T12:02:15;94879.94;;;-3.47;86.01
70559;BME280;58108;48.094;11.838;2023-12-04T12:04:41;94883.19;;;-3.96;86.43
70559;BME280;58108;48.094;11.838;2023-12-04T12:07:07;94870.59;;;-3.75;87.47
70559;BME280;58108;48.094;11.838;2023-12-04T12:09:33;94863.81;;;-3.76;85.36
70559;BME280;58108;48.094;11.838;2023-12-04T12:12:03;94875.81;;;-4.34;87.87
70559;BME280;58108;48.094;11.838;2023-12-04T12:14:29;94882.16;;;-4.47;89.38
70559;BME280;58108;48.094;11.838;2023-12-04T12:16:57;94888.16;;;-4.48;90.38
70559;BME280;58108;48.094;11.838;2023-12-04T12:19:24;94896.00;;;-3.98;88.92
70559;BME280;58108;48.094;11.838;2023-12-04T12:21:49;94904.47;;;-4.24;89.28
70559;BME280;58108;48.094;11.838;2023-12-04T12:24:18;94902.53;;;-4.16;89.64
70559;BME280;58108;48.094;11.838;2023-12-04T12:26:44;94888.66;;;-3.27;88.34
70559;BME280;58108;48.094;11.838;2023-12-04T12:29:11;94897.00;;;-3.21;85.26
70559;BME280;58108;48.094;11.838;2023-12-04T12:31:37;94889.81;;;-3.36;86.05
70559;BME280;58108;48.094;11.838;2023-12-04T12:34:02;94885.00;;;-2.95;83.65
70559;BME280;58108;48.094;11.838;2023-12-04T12:36:31;94881.66;;;-3.22;82.81
70559;BME280;58108;48.094;11.838;2023-12-04T12:39:00;94880.13;;;-4.07;86.92